Time;durP1;ratioP1;P1;durP2;ratioP2;P2;SDS_P1;SDS_P2;PMS_P1;PMS_P2;Temp;Humidity;BMP_temperature;BMP_pressure;BME280_temperature;BME280_humidity;BME280_pressure;Samples;Min_cycle;Max_cycle;Signal;HPM_P1;HPM_P2
2022/06/08 00:01:16;;;;;;;9.90;7.50;;;13.20;99.90;;;;;;5104847;28;20464;-79
2022/06/08 00:03:50;;;;;;;10.33;7.27;;;13.20;99.90;;;;;;5105499;28;20551;-78
2022/06/08 00:06:19;;;;;;;10.67;8.27;;;13.10;99.90;;;;;;5103803;28;20487;-79
2022/06/08 00:08:48;;;;;;;10.70;9.27;;;13.10;99.90;;;;;;5104175;28;20471;-80
2022/06/08 00:11:16;;;;;;;11.73;8.77;;;13.10;99.90;;;;;;5104857;28;21022;-79
2022/06/08 00:13:45;;;;;;;10.40;8.77;;;13.10;99.90;;;;;;5102540;28;20496;-77
2022/06/08 00:16:14;;;;;;;11.33;9.20;;;13.10;99.90;;;;;;5100478;28;20499;-77
2022/06/08 00:18:44;;;;;;;9.87;8.60;;;13.00;99.90;;;;;;5100978;28;20516;-79
2022/06/08 00:21:16;;;;;;;11.23;8.00;;;13.00;99.90;;;;;;5103702;28;20471;-79
2022/06/08 00:23:44;;;;;;;10.53;7.90;;;13.00;99.90;;;;;;5101055;28;20471;-77
2022/06/08 00:26:13;;;;;;;11.17;9.07;;;13.00;99.90;;;;;;5100978;28;20459;-78
2022/06/08 00:28:42;;;;;;;11.53;8.87;;;12.90;99.90;;;;;;5100046;28;20451;-78
2022/06/08 00:31:10;;;;;;;10.10;7.37;;;12.90;99.90;;;;;;5100381;28;20451;-78
2022/06/08 00:33:43;;;;;;;10.47;8.70;;;12.90;99.90;;;;;;5100334;28;20459;-77
2022/06/08 00:36:14;;;;;;;10.30;8.50;;;12.90;99.90;;;;;;5100719;28;20448;-78
2022/06/08 00:38:43;;;;;;;11.10;9.63;;;12.80;99.90;;;;;;5101455;28;20482;-78
2022/06/08 00:41:29;;;;;;;12.10;9.73;;;12.80;99.90;;;;;;5099806;28;20517;-78
2022/06/08 00:44:00;;;;;;;10.53;9.20;;;12.80;99.90;;;;;;5100110;28;20497;-78
2022/06/08 00:46:28;;;;;;;11.00;9.63;;;12.80;99.90;;;;;;5099470;28;20448;-77
2022/06/08 00:49:03;;;;;;;11.50;9.50;;;12.80;99.90;;;;;;5100774;28;20448;-79
2022/06/08 00:51:33;;;;;;;11.27;9.73;;;12.70;99.90;;;;;;5100437;28;20444;-77
2022/06/08 00:54:07;;;;;;;11.50;10.30;;;12.70;99.90;;;;;;5100663;28;20477;-78
2022/06/08 00:56:38;;;;;;;11.70;9.73;;;12.70;99.90;;;;;;5100027;28;20867;-77
2022/06/08 00:59:08;;;;;;;11.33;9.87;;;12.60;99.90;;;;;;5101057;28;20533;-77
2022/06/08 01:01:36;;;;;;;11.47;9.37;;;12.60;99.90;;;;;;5099525;28;20452;-78
2022/06/08 01:04:12;;;;;;;11.90;10.00;;;12.60;99.90;;;;;;5099605;28;20831;-79
2022/06/08 01:06:48;;;;;;;11.30;10.07;;;12.60;99.90;;;;;;5102843;28;20471;-79
2022/06/08 01:09:21;;;;;;;12.60;10.50;;;12.60;99.90;;;;;;5102328;28;20472;-78
2022/06/08 01:11:50;;;;;;;10.73;9.63;;;12.50;99.90;;;;;;5102303;28;20462;-78
2022/06/08 01:14:20;;;;;;;11.50;10.07;;;12.50;99.90;;;;;;5101909;28;20471;-78
2022/06/08 01:16:57;;;;;;;12.83;9.43;;;12.50;99.90;;;;;;5101302;28;20562;-78
2022/06/08 01:19:27;;;;;;;12.30;10.30;;;12.50;99.90;;;;;;5102276;28;20542;-80
2022/06/08 01:22:00;;;;;;;11.73;10.07;;;12.50;99.90;;;;;;5100339;28;20468;-77
2022/06/08 01:24:51;;;;;;;12.53;10.07;;;12.40;99.90;;;;;;5099379;28;20468;-79
2022/06/08 01:27:47;;;;;;;10.93;9.83;;;12.40;99.90;;;;;;5101398;28;20480;-79
2022/06/08 01:30:21;;;;;;;12.40;10.90;;;12.40;99.90;;;;;;5101143;28;20433;-78
2022/06/08 01:33:26;;;;;;;12.30;11.00;;;12.40;99.90;;;;;;5101855;28;20470;-79
2022/06/08 01:36:05;;;;;;;12.57;10.60;;;12.30;99.90;;;;;;5035133;28;20463;-79
2022/06/08 01:38:46;;;;;;;11.30;10.10;;;12.30;99.90;;;;;;5099964;28;20481;-77
2022/06/08 01:41:33;;;;;;;13.53;10.70;;;12.20;99.90;;;;;;5098390;28;20961;-77
2022/06/08 01:44:12;;;;;;;13.50;10.97;;;12.20;99.90;;;;;;5097776;28;20432;-78
2022/06/08 01:46:47;;;;;;;12.30;10.40;;;12.20;99.90;;;;;;5098443;28;20527;-77
2022/06/08 01:49:27;;;;;;;11.37;10.17;;;12.20;99.90;;;;;;5099438;28;20488;-80
2022/06/08 01:52:17;;;;;;;12.60;10.67;;;12.20;99.90;;;;;;5099429;28;20444;-79
2022/06/08 01:55:02;;;;;;;13.10;11.40;;;12.20;99.90;;;;;;5099653;28;20469;-79
2022/06/08 01:57:52;;;;;;;11.30;10.10;;;12.20;99.90;;;;;;5101741;28;20507;-77
2022/06/08 02:00:24;;;;;;;11.13;9.57;;;12.10;99.90;;;;;;5097886;28;20808;-78
2022/06/08 02:03:02;;;;;;;13.33;10.90;;;12.10;99.90;;;;;;5097671;28;20479;-79
2022/06/08 02:05:41;;;;;;;12.60;11.20;;;12.10;99.90;;;;;;5100555;28;20493;-79
2022/06/08 02:08:17;;;;;;;12.40;10.93;;;12.10;99.90;;;;;;5100835;28;20801;-79
2022/06/08 02:10:54;;;;;;;14.03;11.63;;;12.10;99.90;;;;;;5098697;28;20436;-79
2022/06/08 02:13:33;;;;;;;12.03;10.73;;;12.10;99.90;;;;;;5101931;28;20436;-80
2022/06/08 02:16:08;;;;;;;15.33;12.43;;;12.10;99.90;;;;;;5110422;28;20467;-80
2022/06/08 02:18:43;;;;;;;13.67;12.30;;;12.20;99.90;;;;;;5107816;28;20448;-78
2022/06/08 02:21:17;;;;;;;14.80;13.30;;;12.20;99.90;;;;;;5107257;28;20464;-78
2022/06/08 02:23:51;;;;;;;15.70;14.10;;;12.20;99.90;;;;;;5108105;28;20439;-78
2022/06/08 02:26:25;;;;;;;15.00;12.03;;;12.20;99.90;;;;;;5104596;28;20915;-78
2022/06/08 02:28:59;;;;;;;13.03;11.73;;;12.20;99.90;;;;;;5105505;28;20467;-79
2022/06/08 02:31:32;;;;;;;13.80;12.40;;;12.20;99.90;;;;;;5105092;28;20468;-79
2022/06/08 02:37:01;;;;;;;15.30;13.70;;;12.20;99.90;;;;;;5109714;28;20451;-78
2022/06/08 02:39:33;;;;;;;15.70;14.07;;;12.30;99.90;;;;;;5109458;28;20439;-80
2022/06/08 02:42:09;;;;;;;15.13;13.63;;;12.30;99.90;;;;;;5110530;28;20467;-79
2022/06/08 02:44:40;;;;;;;15.53;13.43;;;12.30;99.90;;;;;;5110365;28;20829;-80
2022/06/08 02:47:15;;;;;;;15.73;14.23;;;12.30;99.90;;;;;;5108549;28;20450;-79
2022/06/08 02:49:44;;;;;;;15.87;14.13;;;12.30;99.90;;;;;;5109094;28;20436;-79
2022/06/08 02:52:21;;;;;;;17.70;14.90;;;12.30;99.90;;;;;;5110593;28;20432;-79
2022/06/08 02:54:54;;;;;;;16.23;14.67;;;12.40;99.90;;;;;;5108681;28;20463;-80
2022/06/08 02:57:37;;;;;;;14.50;12.63;;;12.40;99.90;;;;;;5108535;28;20876;-79
2022/06/08 03:00:13;;;;;;;17.23;15.47;;;12.40;99.90;;;;;;5107429;28;20852;-79
2022/06/08 03:02:46;;;;;;;15.60;14.10;;;12.40;99.90;;;;;;5106168;28;20499;-81
2022/06/08 03:05:20;;;;;;;16.93;15.33;;;12.40;99.90;;;;;;5107275;28;20470;-78
2022/06/08 03:07:54;;;;;;;17.53;15.73;;;12.40;99.90;;;;;;5106467;28;20466;-78
2022/06/08 03:10:24;;;;;;;17.17;15.40;;;12.40;99.90;;;;;;5106992;28;20518;-80
2022/06/08 03:13:01;;;;;;;18.90;14.90;;;12.40;99.90;;;;;;5105772;28;20814;-80
2022/06/08 03:15:31;;;;;;;17.00;15.20;;;12.40;99.90;;;;;;5106498;28;20535;-80
2022/06/08 03:18:02;;;;;;;17.40;15.60;;;12.50;99.90;;;;;;5107011;28;20460;-80
2022/06/08 03:20:31;;;;;;;17.67;15.93;;;12.50;99.90;;;;;;5112100;28;20428;-79
2022/06/08 03:22:59;;;;;;;15.80;13.50;;;12.50;99.90;;;;;;5110590;28;20996;-78
2022/06/08 03:25:34;;;;;;;17.90;15.50;;;12.50;99.90;;;;;;5112370;28;20468;-79
2022/06/08 03:28:05;;;;;;;16.20;14.60;;;12.50;99.90;;;;;;5111333;28;20459;-79
2022/06/08 03:30:34;;;;;;;18.20;16.30;;;12.50;99.90;;;;;;5110483;28;20419;-79
2022/06/08 03:33:03;;;;;;;15.73;14.13;;;12.50;99.90;;;;;;5109827;28;20864;-79
2022/06/08 03:35:31;;;;;;;16.00;14.50;;;12.50;99.90;;;;;;5109469;28;20525;-79
2022/06/08 03:38:00;;;;;;;20.10;17.10;;;12.50;99.90;;;;;;5108686;28;20448;-79
2022/06/08 03:40:31;;;;;;;22.13;17.43;;;12.50;99.90;;;;;;5108138;28;20456;-79
2022/06/08 03:42:59;;;;;;;22.70;20.30;;;12.60;99.90;;;;;;5108725;28;20472;-79
2022/06/08 03:45:35;;;;;;;18.97;16.10;;;12.50;99.90;;;;;;5107827;28;20479;-79
2022/06/08 03:48:07;;;;;;;17.03;15.30;;;12.60;99.90;;;;;;5107721;28;20448;-80
2022/06/08 03:50:36;;;;;;;22.47;20.07;;;12.60;99.90;;;;;;5106370;28;20456;-80
2022/06/08 03:53:08;;;;;;;18.00;16.20;;;12.60;99.90;;;;;;5105808;28;20471;-79
2022/06/08 03:55:37;;;;;;;18.93;16.83;;;12.60;99.90;;;;;;5106079;28;20514;-77
2022/06/08 03:58:06;;;;;;;17.87;16.07;;;12.60;99.90;;;;;;5105612;28;20478;-79
2022/06/08 04:00:41;;;;;;;17.83;15.30;;;12.60;99.90;;;;;;5106695;28;21021;-79
2022/06/08 04:03:16;;;;;;;18.63;15.50;;;12.70;99.90;;;;;;5106753;28;20472;-79
2022/06/08 04:05:46;;;;;;;18.20;16.40;;;12.70;99.90;;;;;;5106665;28;20833;-78
2022/06/08 04:08:20;;;;;;;17.43;15.20;;;12.60;99.90;;;;;;5104829;28;20440;-78
2022/06/08 04:10:55;;;;;;;18.70;16.73;;;12.70;99.90;;;;;;5105674;28;20447;-78
2022/06/08 04:13:23;;;;;;;16.87;15.17;;;12.70;99.90;;;;;;5104223;28;20512;-78
2022/06/08 04:15:58;;;;;;;18.97;17.07;;;12.70;99.90;;;;;;5104959;28;20464;-79
2022/06/08 04:18:32;;;;;;;18.10;16.40;;;12.80;99.90;;;;;;5106689;28;20439;-80
2022/06/08 04:21:05;;;;;;;20.57;18.37;;;12.80;99.90;;;;;;5105744;28;20440;-80
2022/06/08 04:23:45;;;;;;;18.97;17.07;;;12.80;99.90;;;;;;5105025;28;20464;-79
2022/06/08 04:26:17;;;;;;;20.37;18.17;;;12.80;99.90;;;;;;5103237;28;20434;-78
2022/06/08 04:28:48;;;;;;;20.33;18.33;;;12.90;99.90;;;;;;5104691;28;20494;-79
2022/06/08 04:31:22;;;;;;;22.40;16.77;;;12.90;99.90;;;;;;5105193;28;20440;-79
2022/06/08 04:33:55;;;;;;;19.83;18.00;;;12.90;99.90;;;;;;5102986;28;20531;-79
2022/06/08 04:36:31;;;;;;;21.20;18.50;;;12.90;99.90;;;;;;5102910;28;20448;-79
2022/06/08 04:39:01;;;;;;;21.27;19.07;;;13.00;99.90;;;;;;5106142;28;20439;-78
2022/06/08 04:41:32;;;;;;;20.23;18.23;;;13.10;99.90;;;;;;5102472;28;20601;-78
2022/06/08 04:44:00;;;;;;;19.63;17.63;;;13.10;99.90;;;;;;5102303;28;20499;-78
2022/06/08 04:46:32;;;;;;;19.13;17.13;;;13.20;99.90;;;;;;5102196;28;20444;-79
2022/06/08 04:49:03;;;;;;;21.57;19.37;;;13.20;99.90;;;;;;5103188;28;20541;-80
2022/06/08 04:51:33;;;;;;;19.80;17.73;;;13.20;99.90;;;;;;5102032;28;20475;-78
2022/06/08 04:54:03;;;;;;;19.90;18.00;;;13.30;99.90;;;;;;5102657;28;20463;-79
2022/06/08 04:56:33;;;;;;;20.63;18.20;;;13.30;99.90;;;;;;5102249;28;20448;-78
2022/06/08 04:59:01;;;;;;;20.23;18.27;;;13.40;99.90;;;;;;5101215;28;20448;-78
2022/06/08 05:01:35;;;;;;;20.30;18.17;;;13.40;99.90;;;;;;5103213;28;20466;-80
2022/06/08 05:04:07;;;;;;;20.30;18.20;;;13.40;99.90;;;;;;5104008;28;20562;-80
2022/06/08 05:06:35;;;;;;;20.13;18.00;;;13.50;99.90;;;;;;5102251;28;20452;-78
2022/06/08 05:09:04;;;;;;;20.33;17.60;;;13.50;99.90;;;;;;5101339;28;20542;-78
2022/06/08 05:11:38;;;;;;;19.80;17.70;;;13.60;99.90;;;;;;5103574;28;20472;-79
2022/06/08 05:14:06;;;;;;;20.53;18.53;;;13.60;99.90;;;;;;5103708;28;20573;-79
2022/06/08 05:16:36;;;;;;;19.77;17.67;;;13.70;99.90;;;;;;5104029;28;20478;-78
2022/06/08 05:19:05;;;;;;;20.13;17.40;;;13.70;99.90;;;;;;5104080;28;20523;-79
2022/06/08 05:21:33;;;;;;;19.93;17.40;;;13.80;99.90;;;;;;5104214;28;20472;-79
2022/06/08 05:24:10;;;;;;;20.70;17.50;;;13.80;99.90;;;;;;5105128;28;20483;-79
2022/06/08 05:26:46;;;;;;;19.30;16.10;;;13.90;99.90;;;;;;5107575;28;20526;-79
2022/06/08 05:29:14;;;;;;;19.90;17.87;;;13.90;99.90;;;;;;5105612;28;20479;-79
2022/06/08 05:31:44;;;;;;;18.57;16.40;;;14.00;99.90;;;;;;5105103;28;20464;-80
2022/06/08 05:34:12;;;;;;;19.10;17.30;;;14.10;99.90;;;;;;5105799;28;20536;-79
2022/06/08 05:36:43;;;;;;;19.70;17.63;;;14.20;99.90;;;;;;5111366;28;20440;-77
2022/06/08 05:39:18;;;;;;;20.20;17.77;;;14.40;99.90;;;;;;5112290;28;20450;-79
2022/06/08 05:41:47;;;;;;;23.23;21.10;;;14.50;99.90;;;;;;5113946;28;20437;-79
2022/06/08 05:44:15;;;;;;;24.67;22.03;;;14.60;99.90;;;;;;5114170;28;20476;-79
2022/06/08 05:46:50;;;;;;;24.97;22.57;;;14.70;99.90;;;;;;5111338;28;20439;-78
2022/06/08 05:49:19;;;;;;;23.80;21.73;;;14.80;99.90;;;;;;5112384;28;20435;-79
2022/06/08 05:51:49;;;;;;;23.57;21.37;;;14.80;99.90;;;;;;5113585;28;20444;-79
2022/06/08 05:54:22;;;;;;;23.10;21.03;;;14.90;99.90;;;;;;5113960;28;20527;-79
2022/06/08 05:56:51;;;;;;;23.50;21.23;;;14.90;99.90;;;;;;5113405;28;20470;-78
2022/06/08 05:59:22;;;;;;;26.00;23.30;;;15.00;99.90;;;;;;5109867;28;20946;-79
2022/06/08 06:01:53;;;;;;;24.57;22.40;;;15.00;99.90;;;;;;5109929;28;20821;-78
2022/06/08 06:04:22;;;;;;;25.77;23.50;;;15.10;99.90;;;;;;5110235;28;20483;-77
2022/06/08 06:06:52;;;;;;;27.17;24.53;;;15.10;99.90;;;;;;5109404;28;20440;-78
2022/06/08 06:09:21;;;;;;;26.43;24.03;;;15.20;99.90;;;;;;5112206;28;20451;-78
2022/06/08 06:11:50;;;;;;;24.90;22.80;;;15.30;99.90;;;;;;5115568;28;20415;-79
2022/06/08 06:14:21;;;;;;;27.97;25.53;;;15.30;99.90;;;;;;5119823;28;20464;-79
2022/06/08 06:16:54;;;;;;;24.53;22.13;;;15.30;99.90;;;;;;5118890;28;20451;-80
2022/06/08 06:19:23;;;;;;;27.60;25.00;;;15.40;99.90;;;;;;5116604;28;20459;-79
2022/06/08 06:22:10;;;;;;;26.00;23.60;;;15.50;99.90;;;;;;5104805;28;20472;-79
2022/06/08 06:25:02;;;;;;;25.67;23.50;;;15.50;99.90;;;;;;5107100;28;20450;-79
2022/06/08 06:28:09;;;;;;;26.70;24.40;;;15.80;99.90;;;;;;5125214;28;20493;-77
2022/06/08 06:31:04;;;;;;;25.33;23.07;;;16.20;99.90;;;;;;5132222;28;20425;-78
2022/06/08 06:33:48;;;;;;;25.20;22.90;;;16.60;99.90;;;;;;5112593;28;20429;-78
2022/06/08 06:36:16;;;;;;;23.30;21.07;;;16.90;99.90;;;;;;5106763;28;20510;-78
2022/06/08 06:38:45;;;;;;;25.07;22.90;;;17.30;99.90;;;;;;5106084;28;20440;-78
2022/06/08 06:41:15;;;;;;;24.20;22.20;;;17.60;99.90;;;;;;5107112;28;20433;-79
2022/06/08 06:43:47;;;;;;;23.77;21.77;;;17.80;99.90;;;;;;5104595;28;20464;-78
2022/06/08 06:46:23;;;;;;;23.27;21.27;;;18.10;99.90;;;;;;5105273;28;20407;-77
2022/06/08 06:49:05;;;;;;;20.80;19.10;;;18.40;99.90;;;;;;5105517;28;20440;-78
2022/06/08 06:51:35;;;;;;;21.87;19.87;;;18.70;99.90;;;;;;5104138;28;20433;-77
2022/06/08 06:54:04;;;;;;;22.90;21.00;;;19.00;99.90;;;;;;5104761;28;20448;-78
2022/06/08 06:56:36;;;;;;;20.90;19.00;;;19.20;99.90;;;;;;5103881;28;20515;-79
2022/06/08 06:59:09;;;;;;;22.13;20.03;;;19.40;99.90;;;;;;5104093;28;20490;-78
2022/06/08 07:01:37;;;;;;;22.80;20.90;;;19.60;99.90;;;;;;5104194;28;20444;-78
2022/06/08 07:04:08;;;;;;;23.27;20.97;;;19.80;99.90;;;;;;5101322;28;20482;-76
2022/06/08 07:06:36;;;;;;;22.70;20.70;;;20.00;99.90;;;;;;5105371;28;20445;-77
2022/06/08 07:09:05;;;;;;;21.77;19.93;;;20.30;99.90;;;;;;5101786;28;20444;-78
2022/06/08 07:11:40;;;;;;;22.90;21.00;;;20.50;99.90;;;;;;5102055;28;20440;-77
2022/06/08 07:14:32;;;;;;;21.60;19.80;;;20.60;99.90;;;;;;5103090;28;20457;-77
2022/06/08 07:17:05;;;;;;;23.47;21.30;;;20.70;99.90;;;;;;5105387;28;20490;-78
2022/06/08 07:19:39;;;;;;;22.17;20.23;;;20.70;99.90;;;;;;5105473;28;20456;-79
2022/06/08 07:22:08;;;;;;;22.63;20.63;;;20.70;99.90;;;;;;5100510;28;20844;-78
2022/06/08 07:24:36;;;;;;;22.50;20.50;;;20.60;99.90;;;;;;5100389;28;20480;-77
2022/06/08 07:27:05;;;;;;;21.43;19.53;;;20.60;99.90;;;;;;5101722;28;20518;-77
2022/06/08 07:29:34;;;;;;;22.33;20.07;;;20.60;99.90;;;;;;5098512;28;20505;-77
2022/06/08 07:32:02;;;;;;;23.30;21.10;;;20.60;99.90;;;;;;5101572;28;20794;-78
2022/06/08 07:34:31;;;;;;;21.80;19.90;;;20.60;99.90;;;;;;5103121;28;20456;-78
2022/06/08 07:37:01;;;;;;;21.17;19.27;;;20.60;99.90;;;;;;5102329;28;20444;-79
2022/06/08 07:39:29;;;;;;;22.50;20.43;;;20.70;99.90;;;;;;5102338;28;20456;-78
2022/06/08 07:41:57;;;;;;;23.93;21.83;;;20.80;99.90;;;;;;5104154;28;20538;-78
2022/06/08 07:44:26;;;;;;;21.43;19.43;;;21.00;99.90;;;;;;5104587;28;20472;-79
2022/06/08 07:46:54;;;;;;;23.07;20.87;;;21.10;99.90;;;;;;5102899;28;20479;-79
2022/06/08 07:49:39;;;;;;;22.10;20.00;;;21.20;99.90;;;;;;5100680;28;20440;-79
2022/06/08 07:52:11;;;;;;;23.17;21.17;;;21.40;99.90;;;;;;5102287;28;20847;-79
2022/06/08 07:54:40;;;;;;;21.37;19.60;;;21.50;99.90;;;;;;5102763;28;20491;-79
2022/06/08 07:57:13;;;;;;;23.03;21.03;;;21.60;99.90;;;;;;5105234;28;20448;-79
2022/06/08 07:59:41;;;;;;;20.57;18.67;;;21.60;99.90;;;;;;5102576;28;20471;-78
2022/06/08 08:02:10;;;;;;;21.60;19.77;;;21.60;99.90;;;;;;5102703;28;20467;-79
2022/06/08 08:04:38;;;;;;;24.23;22.00;;;21.60;99.90;;;;;;5103585;28;20868;-79
2022/06/08 08:07:11;;;;;;;24.20;22.10;;;21.60;99.90;;;;;;5102569;28;20519;-79
2022/06/08 08:09:39;;;;;;;23.30;21.00;;;21.50;99.90;;;;;;5103176;28;20814;-78
2022/06/08 08:12:09;;;;;;;23.63;21.37;;;21.50;99.90;;;;;;5102143;28;20448;-79
2022/06/08 08:14:37;;;;;;;24.73;22.53;;;21.50;99.90;;;;;;5102490;28;20468;-80
2022/06/08 08:17:06;;;;;;;24.10;21.70;;;21.50;99.90;;;;;;5102931;28;20448;-79
2022/06/08 08:19:38;;;;;;;24.33;22.30;;;21.40;99.90;;;;;;5101388;28;20452;-79
2022/06/08 08:22:07;;;;;;;22.40;20.30;;;21.50;99.90;;;;;;5102494;28;20535;-78
2022/06/08 08:24:37;;;;;;;22.87;20.83;;;21.50;99.90;;;;;;5101850;28;20880;-78
2022/06/08 08:27:05;;;;;;;24.50;22.30;;;21.50;99.90;;;;;;5101164;28;20486;-78
2022/06/08 08:29:34;;;;;;;23.40;21.30;;;21.60;99.90;;;;;;5101802;28;20547;-80
2022/06/08 08:32:02;;;;;;;24.73;22.50;;;21.70;99.90;;;;;;5097718;28;20451;-82
2022/06/08 08:34:31;;;;;;;23.90;21.80;;;21.90;99.90;;;;;;5095234;28;20551;-81
2022/06/08 08:36:59;;;;;;;22.70;20.60;;;22.00;99.90;;;;;;5095708;28;20812;-82
2022/06/08 08:39:27;;;;;;;24.10;21.90;;;22.00;99.90;;;;;;5098272;28;20482;-82
2022/06/08 08:44:47;;;;;;;22.50;20.50;;;22.20;99.90;;;;;;5086994;28;20530;-82
2022/06/08 08:47:28;;;;;;;23.27;21.17;;;22.30;99.90;;;;;;5095046;28;20440;-82
2022/06/08 08:49:58;;;;;;;25.87;23.50;;;22.30;99.90;;;;;;5096793;28;20417;-80
2022/06/08 08:52:35;;;;;;;22.10;20.10;;;22.30;99.90;;;;;;5096849;28;20911;-79
2022/06/08 08:55:12;;;;;;;22.10;20.20;;;22.30;99.90;;;;;;5096104;28;20456;-80
2022/06/08 08:57:45;;;;;;;20.47;18.67;;;22.30;99.90;;;;;;5095010;28;20482;-80
2022/06/08 09:00:19;;;;;;;21.47;19.50;;;22.30;99.90;;;;;;5094694;28;20436;-80
2022/06/08 09:05:35;;;;;;;20.10;18.27;;;22.30;99.90;;;;;;5094689;28;20570;-81
2022/06/08 09:08:03;;;;;;;20.83;19.03;;;22.40;99.90;;;;;;5094187;28;20454;-81
2022/06/08 09:10:31;;;;;;;22.93;20.80;;;22.50;99.90;;;;;;5094301;28;20509;-80
2022/06/08 09:13:04;;;;;;;23.13;21.13;;;22.50;99.90;;;;;;5095690;28;20527;-79
2022/06/08 09:15:45;;;;;;;23.00;20.90;;;22.60;99.90;;;;;;5094338;28;20503;-80
2022/06/08 09:18:20;;;;;;;20.47;18.70;;;22.70;99.90;;;;;;5095536;28;20425;-80
2022/06/08 09:20:48;;;;;;;18.40;16.80;;;22.70;99.90;;;;;;5094579;28;20474;-80
2022/06/08 09:23:24;;;;;;;18.97;17.17;;;22.60;99.90;;;;;;5094645;28;20860;-82
2022/06/08 09:26:04;;;;;;;19.23;17.47;;;22.70;99.90;;;;;;5094356;28;20503;-81
2022/06/08 09:28:36;;;;;;;19.90;18.10;;;22.70;99.90;;;;;;5093853;28;20436;-82
2022/06/08 09:31:04;;;;;;;20.40;18.60;;;22.80;99.90;;;;;;5095629;28;20508;-81
2022/06/08 09:33:36;;;;;;;21.23;19.30;;;22.90;99.90;;;;;;5095166;28;20450;-81
2022/06/08 09:36:23;;;;;;;20.63;18.73;;;22.90;99.90;;;;;;5093672;28;20463;-79
2022/06/08 09:38:52;;;;;;;19.50;17.80;;;22.90;99.90;;;;;;5095225;28;20417;-80
2022/06/08 09:41:25;;;;;;;22.93;20.57;;;22.90;99.90;;;;;;5095158;28;20444;-79
2022/06/08 09:44:15;;;;;;;23.20;21.00;;;22.90;99.90;;;;;;5093779;28;20439;-80
2022/06/08 09:52:56;;;;;;;22.90;20.83;;;23.10;99.90;;;;;;5098070;28;20965;-81
2022/06/08 09:55:31;;;;;;;20.10;18.17;;;23.20;99.90;;;;;;5099036;28;20458;-80
2022/06/08 09:58:13;;;;;;;23.23;20.97;;;23.30;99.90;;;;;;5098040;28;20505;-79
2022/06/08 10:00:57;;;;;;;20.87;18.90;;;23.30;99.90;;;;;;5097619;28;20440;-80
2022/06/08 10:03:44;;;;;;;24.27;21.97;;;23.40;99.90;;;;;;5097384;28;20467;-81
2022/06/08 10:06:22;;;;;;;18.63;16.83;;;23.50;99.90;;;;;;5097363;28;20460;-80
2022/06/08 10:09:05;;;;;;;19.37;17.57;;;23.50;99.90;;;;;;5098706;28;20466;-80
2022/06/08 10:11:41;;;;;;;18.60;16.87;;;23.50;99.90;;;;;;5097313;28;20444;-81
2022/06/08 10:14:26;;;;;;;18.23;16.63;;;23.60;99.90;;;;;;5097132;28;20470;-81
2022/06/08 10:17:01;;;;;;;15.87;14.47;;;23.70;99.90;;;;;;5097478;28;20444;-81
2022/06/08 10:19:36;;;;;;;14.97;13.57;;;23.80;99.90;;;;;;5097439;28;20489;-80
2022/06/08 10:22:05;;;;;;;16.37;14.87;;;23.90;99.90;;;;;;5097140;28;20474;-81
2022/06/08 10:24:43;;;;;;;18.40;16.70;;;24.00;99.90;;;;;;5097116;28;20467;-81
2022/06/08 10:27:16;;;;;;;13.60;11.27;;;24.10;99.90;;;;;;5097227;28;20503;-79
2022/06/08 10:30:06;;;;;;;12.37;11.17;;;24.20;99.90;;;;;;5097851;28;20436;-80
2022/06/08 10:32:42;;;;;;;14.63;13.33;;;24.20;99.90;;;;;;5097988;28;20444;-83
2022/06/08 10:35:21;;;;;;;13.93;12.73;;;24.20;99.90;;;;;;5098405;28;20463;-82
2022/06/08 10:37:51;;;;;;;12.07;10.87;;;24.30;99.90;;;;;;5098843;28;20452;-82
2022/06/08 10:40:21;;;;;;;12.57;11.43;;;24.40;99.90;;;;;;5099334;28;20428;-82
2022/06/08 10:42:51;;;;;;;11.13;10.03;;;24.60;99.70;;;;;;5099447;28;20515;-81
2022/06/08 10:45:43;;;;;;;12.53;11.27;;;24.70;99.70;;;;;;5099283;28;20463;-82
2022/06/08 10:48:35;;;;;;;12.17;11.07;;;24.70;99.40;;;;;;5098026;28;20447;-82
2022/06/08 10:51:27;;;;;;;15.53;14.23;;;24.70;99.30;;;;;;5098975;28;20449;-81
2022/06/08 10:56:59;;;;;;;15.47;13.97;;;24.70;99.00;;;;;;5097590;28;20439;-83
2022/06/08 10:59:31;;;;;;;12.70;11.47;;;24.80;99.00;;;;;;5098027;28;20509;-82
2022/06/08 11:02:21;;;;;;;12.23;11.13;;;24.80;98.70;;;;;;5098211;28;20460;-81
2022/06/08 11:05:19;;;;;;;10.00;9.10;;;24.80;98.60;;;;;;5099372;28;20473;-81
2022/06/08 11:08:13;;;;;;;13.10;11.70;;;24.80;98.50;;;;;;5094970;28;20953;-81
2022/06/08 11:11:01;;;;;;;10.17;9.27;;;24.80;98.30;;;;;;5097680;28;20818;-82
2022/06/08 11:13:36;;;;;;;14.10;12.70;;;24.70;98.30;;;;;;5097938;28;20440;-82
2022/06/08 11:16:16;;;;;;;13.23;11.93;;;24.70;98.30;;;;;;5097921;28;20544;-83
2022/06/08 11:18:48;;;;;;;12.97;11.60;;;24.70;98.60;;;;;;5081725;28;20443;-81
2022/06/08 11:21:37;;;;;;;11.50;10.40;;;24.80;98.30;;;;;;5098925;28;20511;-82
2022/06/08 11:24:20;;;;;;;12.53;11.23;;;24.80;98.20;;;;;;5098451;28;20832;-81
2022/06/08 11:26:53;;;;;;;11.30;10.10;;;24.80;98.20;;;;;;5098203;28;20483;-81
2022/06/08 11:29:47;;;;;;;12.20;8.80;;;24.80;98.10;;;;;;5096312;28;20436;-82
2022/06/08 11:32:42;;;;;;;8.73;7.83;;;24.80;98.10;;;;;;5096417;28;20454;-81
2022/06/08 11:35:40;;;;;;;10.57;9.50;;;24.90;98.00;;;;;;5096513;28;20476;-82
2022/06/08 11:38:21;;;;;;;9.93;8.00;;;25.00;98.00;;;;;;5097016;28;20440;-80
2022/06/08 11:40:49;;;;;;;7.90;5.90;;;25.10;97.70;;;;;;5096118;28;20459;-83
2022/06/08 11:43:30;;;;;;;9.90;6.63;;;25.10;97.60;;;;;;5097011;28;20475;-81
2022/06/08 11:46:01;;;;;;;19.20;8.00;;;25.10;97.40;;;;;;5095597;28;20472;-80
2022/06/08 11:48:31;;;;;;;8.80;7.37;;;25.00;97.30;;;;;;5096070;28;20444;-81
2022/06/08 11:51:01;;;;;;;8.90;5.80;;;24.90;97.20;;;;;;5095721;28;20440;-81
2022/06/08 11:53:35;;;;;;;9.80;7.47;;;24.90;97.10;;;;;;5096287;28;20437;-81
2022/06/08 11:56:16;;;;;;;10.70;8.60;;;24.80;97.20;;;;;;5096261;28;20580;-82
2022/06/08 11:58:49;;;;;;;9.93;8.73;;;24.70;97.10;;;;;;5095659;28;20441;-80
2022/06/08 12:01:20;;;;;;;9.93;8.20;;;24.70;97.00;;;;;;5095164;28;20485;-80
2022/06/08 12:03:56;;;;;;;8.40;6.23;;;24.60;97.00;;;;;;5096796;28;20439;-80
2022/06/08 12:06:28;;;;;;;7.73;6.37;;;24.50;96.90;;;;;;5095696;28;20464;-81
2022/06/08 12:09:01;;;;;;;7.37;5.83;;;24.40;96.80;;;;;;5095851;28;20437;-80
2022/06/08 12:11:33;;;;;;;7.53;5.70;;;24.30;96.70;;;;;;5097706;28;20432;-80
2022/06/08 12:14:14;;;;;;;7.20;5.20;;;24.30;96.70;;;;;;5097260;28;20412;-81
2022/06/08 12:16:59;;;;;;;7.07;5.00;;;24.20;96.60;;;;;;5096466;28;20940;-81
2022/06/08 12:19:30;;;;;;;7.37;5.20;;;24.30;96.80;;;;;;5096823;28;20995;-80
2022/06/08 12:22:15;;;;;;;6.87;4.80;;;24.30;96.70;;;;;;5097581;28;20439;-82
2022/06/08 12:25:03;;;;;;;7.23;5.60;;;24.50;96.70;;;;;;5096066;28;20519;-80
2022/06/08 12:27:40;;;;;;;7.73;5.10;;;24.50;96.60;;;;;;5097820;28;20456;-80
2022/06/08 12:30:23;;;;;;;6.50;4.83;;;24.60;96.50;;;;;;5095511;28;20464;-82
2022/06/08 12:32:54;;;;;;;6.00;4.40;;;24.60;96.50;;;;;;5097297;28;20440;-81
2022/06/08 12:35:40;;;;;;;10.33;5.50;;;24.50;96.40;;;;;;5097444;28;21071;-82
2022/06/08 12:38:16;;;;;;;8.77;6.20;;;24.50;96.30;;;;;;5096189;28;20440;-80
2022/06/08 12:41:05;;;;;;;8.17;5.50;;;24.50;96.30;;;;;;5096207;28;20432;-81
2022/06/08 12:43:39;;;;;;;6.43;4.87;;;24.50;96.20;;;;;;5097290;28;20467;-81
2022/06/08 12:46:28;;;;;;;5.73;4.70;;;24.60;96.10;;;;;;5095365;28;20927;-82
2022/06/08 12:49:16;;;;;;;6.47;4.40;;;24.70;96.00;;;;;;5095941;28;20451;-82
2022/06/08 12:51:50;;;;;;;10.07;8.70;;;24.70;95.70;;;;;;5095809;28;20466;-82
2022/06/08 12:54:30;;;;;;;6.07;4.63;;;24.70;95.80;;;;;;5096590;28;20470;-80
2022/06/08 12:57:11;;;;;;;6.17;5.03;;;24.70;95.70;;;;;;5095316;28;20436;-82
2022/06/08 12:59:39;;;;;;;6.63;4.67;;;24.70;95.60;;;;;;5095009;28;20444;-82
2022/06/08 13:02:13;;;;;;;6.43;4.80;;;24.70;95.50;;;;;;5096209;28;20455;-81
2022/06/08 13:04:42;;;;;;;7.07;5.40;;;24.70;95.40;;;;;;5095052;28;20513;-81
2022/06/08 13:07:14;;;;;;;7.07;6.13;;;24.70;95.40;;;;;;5097010;28;20539;-80
2022/06/08 13:09:43;;;;;;;12.37;11.07;;;24.60;95.40;;;;;;5095370;28;20495;-81
2022/06/08 13:12:20;;;;;;;6.90;6.20;;;24.60;95.40;;;;;;5095312;28;20496;-80
2022/06/08 13:14:49;;;;;;;6.43;5.60;;;24.50;95.40;;;;;;5094568;28;20463;-81
2022/06/08 13:17:17;;;;;;;6.60;5.73;;;24.50;95.40;;;;;;5094436;28;20527;-80
2022/06/08 13:19:46;;;;;;;6.93;6.00;;;24.50;95.40;;;;;;5094038;28;20444;-80
2022/06/08 13:22:15;;;;;;;6.70;6.00;;;24.50;95.40;;;;;;5094958;28;20444;-82
2022/06/08 13:24:43;;;;;;;7.50;6.80;;;24.40;95.40;;;;;;5095136;28;20498;-81